Time;durP1;ratioP1;P1;durP2;ratioP2;P2;SDS_P1;SDS_P2;PMS_P1;PMS_P2;Temp;Humidity;BMP_temperature;BMP_pressure;BME280_temperature;BME280_humidity;BME280_pressure;Samples;Min_cycle;Max_cycle;Signal;HPM_P1;HPM_P2
2023/05/12 00:00:29;;;;;;;8.90;6.40;;;;;;;-141.97;79.25;47620.94;4949859;28;20239;-81
2023/05/12 00:02:54;;;;;;;9.90;6.03;;;;;;;-141.97;79.52;47667.06;4973000;28;20164;-81
2023/05/12 00:05:19;;;;;;;8.50;6.07;;;;;;;-141.97;79.86;47709.38;4974220;28;20184;-81
2023/05/12 00:07:45;;;;;;;10.27;6.27;;;;;;;-141.97;79.99;47605.56;4973353;28;20223;-80
2023/05/12 00:10:10;;;;;;;9.17;5.83;;;;;;;-141.97;79.30;47711.28;4973384;28;20621;-81
2023/05/12 00:12:36;;;;;;;10.27;6.30;;;;;;;-141.97;79.32;47669.00;4973413;28;20334;-81
2023/05/12 00:15:02;;;;;;;9.43;6.33;;;;;;;-141.97;79.53;47682.47;4974388;28;20251;-81
2023/05/12 00:17:27;;;;;;;10.60;6.57;;;;;;;-141.97;79.70;47699.75;4972082;28;20341;-81
2023/05/12 00:19:53;;;;;;;11.53;6.53;;;;;;;-141.97;79.40;47715.13;4972989;28;20646;-81
2023/05/12 00:22:18;;;;;;;12.50;6.90;;;;;;;-141.97;79.14;47701.69;4973002;28;20160;-81
2023/05/12 00:24:44;;;;;;;11.37;7.10;;;;;;;-141.97;80.10;47672.84;4973746;28;20195;-81
2023/05/12 00:27:09;;;;;;;10.43;6.80;;;;;;;-141.97;80.43;47713.22;4957343;28;20164;-81
2023/05/12 00:29:35;;;;;;;9.80;6.70;;;;;;;-141.97;80.59;47659.38;4973969;28;20184;-80
2023/05/12 00:32:01;;;;;;;10.73;6.70;;;;;;;-141.97;80.49;47670.91;4973148;28;20655;-81
2023/05/12 00:34:27;;;;;;;8.60;6.03;;;;;;;-141.97;81.05;47726.66;4955624;28;20313;-81
2023/05/12 00:36:52;;;;;;;9.67;6.33;;;;;;;-141.97;81.01;47711.28;4973391;28;20171;-81
2023/05/12 00:39:17;;;;;;;11.57;6.93;;;;;;;-141.97;80.57;47578.66;4972872;28;20731;-81
2023/05/12 00:41:43;;;;;;;11.20;6.67;;;;;;;-141.97;80.85;47697.84;4973896;28;20219;-82
2023/05/12 00:44:08;;;;;;;9.13;6.40;;;;;;;-141.97;81.34;47740.13;4973792;28;20176;-81
2023/05/12 00:46:35;;;;;;;12.30;7.07;;;;;;;-141.97;81.80;47588.28;4973471;28;20168;-81
2023/05/12 00:49:01;;;;;;;8.70;6.23;;;;;;;-141.97;81.62;47715.13;4973213;28;20628;-81
2023/05/12 00:51:27;;;;;;;9.63;6.70;;;;;;;-141.97;81.05;47699.75;4972383;28;20164;-81
2023/05/12 00:53:52;;;;;;;10.53;6.60;;;;;;;-141.97;81.36;47657.47;4973423;28;20202;-82
2023/05/12 00:56:18;;;;;;;10.53;6.30;;;;;;;-141.97;81.54;47682.47;4973803;28;20172;-81
2023/05/12 00:58:44;;;;;;;8.73;6.47;;;;;;;-141.97;81.19;47826.63;4973402;28;20597;-80
2023/05/12 01:01:09;;;;;;;9.40;6.20;;;;;;;-141.97;81.63;47674.78;4972030;28;20216;-82
2023/05/12 01:03:35;;;;;;;12.10;6.77;;;;;;;-141.97;81.89;47718.97;4972138;28;20222;-81
2023/05/12 01:06:25;;;;;;;10.33;6.57;;;;;;;-141.97;81.81;47680.53;4964787;28;20237;-81
2023/05/12 01:08:51;;;;;;;9.83;6.07;;;;;;;-141.97;81.49;47678.63;4987428;28;20677;-80
2023/05/12 01:11:16;;;;;;;12.10;6.70;;;;;;;-141.97;81.60;47751.66;4974820;28;20179;-80
2023/05/12 01:13:42;;;;;;;11.87;6.87;;;;;;;-141.97;81.83;47692.06;4986746;28;20204;-79
2023/05/12 01:16:12;;;;;;;12.67;6.80;;;;;;;-141.97;81.78;47717.06;4976679;28;20234;-81
2023/05/12 01:18:41;;;;;;;12.27;7.23;;;;;;;-141.97;81.98;47717.06;4973932;28;20168;-81
2023/05/12 01:21:08;;;;;;;13.50;7.77;;;;;;;-141.97;81.69;47759.34;4973463;28;20782;-82
2023/05/12 01:23:41;;;;;;;12.97;7.30;;;;;;;-141.97;81.28;47845.84;4972341;28;20176;-81
2023/05/12 01:26:08;;;;;;;12.23;7.83;;;;;;;-141.97;81.30;47572.91;4976683;28;20188;-80
2023/05/12 01:28:34;;;;;;;14.33;7.53;;;;;;;-141.97;81.20;47705.53;4976365;28;20183;-82
2023/05/12 01:31:00;;;;;;;10.73;7.17;;;;;;;-141.97;81.16;47730.50;4975984;28;20243;-81
2023/05/12 01:33:26;;;;;;;14.23;7.70;;;;;;;-141.97;81.08;47703.59;4977215;28;20196;-81
2023/05/12 01:35:51;;;;;;;11.93;6.67;;;;;;;-141.97;81.28;47678.63;4976470;28;20168;-80
2023/05/12 01:38:17;;;;;;;10.53;6.33;;;;;;;-141.97;81.75;47665.16;4975911;28;20306;-81
2023/05/12 01:40:42;;;;;;;10.50;6.63;;;;;;;-141.97;81.98;47724.75;4975021;28;20203;-81
2023/05/12 01:43:08;;;;;;;12.63;6.60;;;;;;;-141.97;82.06;47742.03;4976549;28;20202;-81
2023/05/12 01:45:33;;;;;;;11.23;6.70;;;;;;;-141.97;81.90;47703.59;4990861;28;20179;-81
2023/05/12 01:47:59;;;;;;;10.53;6.50;;;;;;;-141.97;82.12;47724.75;4976184;28;20172;-81
2023/05/12 01:50:24;;;;;;;10.57;6.63;;;;;;;-141.97;82.12;47703.59;4976053;28;20630;-82
2023/05/12 01:52:50;;;;;;;14.07;6.63;;;;;;;-141.97;81.62;47692.06;4974784;28;20207;-82
2023/05/12 01:55:16;;;;;;;9.93;5.97;;;;;;;-141.97;81.17;47715.13;4976580;28;20172;-81
2023/05/12 01:57:41;;;;;;;9.37;6.37;;;;;;;-141.97;81.71;47799.72;4976565;28;20168;-81
2023/05/12 02:00:07;;;;;;;9.60;5.90;;;;;;;-141.97;82.06;47588.28;4975471;28;20645;-82
2023/05/12 02:02:33;;;;;;;9.10;6.27;;;;;;;-141.97;81.93;47682.47;4976267;28;20267;-81
2023/05/12 02:04:58;;;;;;;9.37;6.30;;;;;;;-141.97;81.71;47709.38;4975230;28;20657;-80
2023/05/12 02:07:24;;;;;;;10.47;6.90;;;;;;;-141.97;81.40;47790.09;4975061;28;20298;-81
2023/05/12 02:09:49;;;;;;;12.33;6.60;;;;;;;-141.97;80.73;47692.06;4976604;28;20521;-81
2023/05/12 02:12:15;;;;;;;9.67;6.23;;;;;;;-141.97;80.20;47649.78;4980393;28;20203;-80
2023/05/12 02:14:40;;;;;;;10.67;6.37;;;;;;;-141.97;80.33;47826.63;4995833;28;20164;-81
2023/05/12 02:17:06;;;;;;;9.83;6.27;;;;;;;-141.97;80.22;47836.22;4996304;28;20693;-81
2023/05/12 02:19:31;;;;;;;9.43;6.40;;;;;;;-141.97;80.43;47649.78;4995477;28;20179;-81
2023/05/12 02:21:57;;;;;;;8.87;6.20;;;;;;;-141.97;80.58;47695.91;4977012;28;20203;-82
2023/05/12 02:24:22;;;;;;;9.90;6.57;;;;;;;-141.97;81.22;47726.66;4977110;28;20167;-81
2023/05/12 02:26:47;;;;;;;10.50;6.33;;;;;;;-141.97;80.85;47678.63;4976357;28;20812;-81
2023/05/12 02:29:13;;;;;;;9.70;6.13;;;;;;;-141.97;80.95;47695.91;4975561;28;20179;-81
2023/05/12 02:31:38;;;;;;;9.73;6.50;;;;;;;-141.97;81.28;47676.69;4975041;28;20296;-82
2023/05/12 02:34:04;;;;;;;9.20;6.20;;;;;;;-141.97;81.41;47686.31;4975353;28;20702;-82
2023/05/12 02:36:29;;;;;;;11.73;6.97;;;;;;;-141.97;80.88;47703.59;4973769;28;20280;-81
2023/05/12 02:38:54;;;;;;;12.13;6.80;;;;;;;-141.97;80.56;47728.59;4975713;28;20637;-82
2023/05/12 02:41:20;;;;;;;11.53;6.90;;;;;;;-141.97;81.20;47740.13;4975356;28;20194;-82
2023/05/12 02:43:45;;;;;;;11.97;7.23;;;;;;;-141.97;81.57;47684.38;4975170;28;20611;-80
2023/05/12 02:46:10;;;;;;;12.80;7.30;;;;;;;-141.97;81.40;47711.28;4975254;28;20237;-81
2023/05/12 02:48:36;;;;;;;10.33;7.20;;;;;;;-141.97;81.80;47676.69;4975475;28;20694;-82
2023/05/12 02:51:01;;;;;;;13.43;7.10;;;;;;;-141.97;81.67;47680.53;4975308;28;20203;-82
2023/05/12 02:53:27;;;;;;;8.43;6.10;;;;;;;-141.97;80.76;47655.53;4975181;28;20184;-81
2023/05/12 02:55:52;;;;;;;9.80;6.20;;;;;;;-141.97;80.04;47728.59;4975049;28;20195;-81
2023/05/12 02:58:18;;;;;;;10.23;6.37;;;;;;;-141.97;80.01;47676.69;4974784;28;20183;-81
2023/05/12 03:00:43;;;;;;;13.23;6.97;;;;;;;-141.97;79.50;47745.88;4974663;28;20644;-82
2023/05/12 03:03:09;;;;;;;11.57;6.50;;;;;;;-141.97;79.62;47718.97;4975172;28;20299;-81
2023/05/12 03:05:34;;;;;;;10.30;6.43;;;;;;;-141.97;79.71;47749.72;4974079;28;20253;-82
2023/05/12 03:08:00;;;;;;;11.80;7.10;;;;;;;-141.97;79.11;47657.47;4974574;28;20275;-81
2023/05/12 03:10:25;;;;;;;9.73;6.73;;;;;;;-141.97;79.47;47645.94;4974762;28;20176;-81
2023/05/12 03:12:51;;;;;;;11.40;6.90;;;;;;;-141.97;79.55;47763.19;4975215;28;20196;-81
2023/05/12 03:15:16;;;;;;;12.43;7.50;;;;;;;-141.97;78.99;47705.53;4974489;28;20190;-81
2023/05/12 03:17:41;;;;;;;12.33;7.37;;;;;;;-141.97;78.57;47697.84;4974960;28;20202;-82
2023/05/12 03:20:07;;;;;;;11.10;7.20;;;;;;;-141.97;78.50;47715.13;4973077;28;20250;-81
2023/05/12 03:22:33;;;;;;;10.20;7.03;;;;;;;-141.97;78.57;47701.69;4974023;28;20549;-81
2023/05/12 03:24:58;;;;;;;10.03;6.80;;;;;;;-141.97;78.77;47711.28;4974259;28;20164;-81
2023/05/12 03:27:23;;;;;;;10.80;6.83;;;;;;;-141.97;78.66;47661.31;4975358;28;20604;-81
2023/05/12 03:29:49;;;;;;;11.17;6.97;;;;;;;-141.97;78.64;47695.91;4974833;28;20168;-82
2023/05/12 03:32:14;;;;;;;10.10;6.63;;;;;;;-141.97;78.21;47732.44;4975104;28;20179;-80
2023/05/12 03:34:39;;;;;;;11.37;6.77;;;;;;;-141.97;78.33;47638.25;4974190;28;20554;-81
2023/05/12 03:37:05;;;;;;;15.33;6.83;;;;;;;-141.97;78.77;47686.31;4973433;28;20172;-80
2023/05/12 03:39:30;;;;;;;10.27;6.63;;;;;;;-141.97;78.19;47642.09;4974618;28;20168;-81
2023/05/12 03:41:56;;;;;;;11.57;6.40;;;;;;;-141.97;78.68;47707.44;4974773;28;20187;-81
2023/05/12 03:44:21;;;;;;;10.53;6.97;;;;;;;-141.97;78.30;47703.59;4975001;28;20186;-81
2023/05/12 03:46:47;;;;;;;13.90;6.97;;;;;;;-141.97;77.70;47745.88;4974496;28;20175;-80
2023/05/12 03:49:12;;;;;;;10.67;6.67;;;;;;;-141.97;77.26;47722.81;4974826;28;20172;-81
2023/05/12 03:51:37;;;;;;;9.00;6.30;;;;;;;-141.97;77.34;47647.84;4973377;28;20195;-81
2023/05/12 03:54:03;;;;;;;12.23;6.60;;;;;;;-141.97;77.97;47680.53;4974520;28;20203;-82
2023/05/12 03:56:29;;;;;;;11.40;7.23;;;;;;;-141.97;78.25;47672.84;4973821;28;20260;-81
2023/05/12 03:58:55;;;;;;;12.63;6.80;;;;;;;-141.97;77.90;47694.00;4974168;28;20207;-80
2023/05/12 04:01:20;;;;;;;13.63;6.60;;;;;;;-141.97;75.92;47740.13;4974439;28;20180;-81
2023/05/12 04:03:47;;;;;;;11.13;6.60;;;;;;;-141.97;74.89;47784.34;4975245;28;20156;-81
2023/05/12 04:06:12;;;;;;;12.20;6.87;;;;;;;-141.97;73.65;47661.31;4974346;28;20254;-81
2023/05/12 04:08:38;;;;;;;9.00;6.50;;;;;;;-141.97;74.12;47782.41;4974398;28;20255;-81
2023/05/12 04:11:04;;;;;;;9.50;6.27;;;;;;;-141.97;73.77;47709.38;4974847;28;20180;-81
2023/05/12 04:13:30;;;;;;;9.20;5.90;;;;;;;-141.97;73.14;47692.06;4972348;28;20227;-81
2023/05/12 04:15:57;;;;;;;13.83;6.80;;;;;;;-141.97;74.34;47761.25;4973258;28;20176;-81
2023/05/12 04:18:24;;;;;;;10.63;6.00;;;;;;;-141.97;73.87;47707.44;4964582;28;20169;-81
2023/05/12 04:20:49;;;;;;;7.93;5.70;;;;;;;-141.97;72.53;47626.72;4983379;28;20171;-81
2023/05/12 04:23:15;;;;;;;9.20;5.57;;;;;;;-141.97;72.22;47695.91;4984391;28;20334;-81
2023/05/12 04:25:41;;;;;;;7.53;5.33;;;;;;;-141.97;71.97;47582.50;4973900;28;20168;-81
2023/05/12 04:28:08;;;;;;;7.83;5.20;;;;;;;-141.97;71.61;47663.22;4988315;28;20199;-81
2023/05/12 04:30:33;;;;;;;10.80;5.30;;;;;;;-141.97;72.54;47778.56;4972282;28;20180;-82
2023/05/12 04:32:59;;;;;;;9.10;6.00;;;;;;;-141.97;72.61;47707.44;4973919;28;20636;-82
2023/05/12 04:35:24;;;;;;;12.13;6.10;;;;;;;-141.97;72.97;47661.31;4972118;28;20260;-81
2023/05/12 04:37:50;;;;;;;10.67;5.77;;;;;;;-141.97;72.37;47611.34;4973287;28;20179;-81
2023/05/12 04:40:15;;;;;;;10.30;5.73;;;;;;;-141.97;70.99;47584.44;4973749;28;20195;-81
2023/05/12 04:42:41;;;;;;;12.97;5.80;;;;;;;-141.97;70.96;47734.34;4974454;28;20172;-80
2023/05/12 04:45:07;;;;;;;10.97;6.50;;;;;;;-141.97;70.41;47720.91;4972653;28;20203;-80
2023/05/12 04:47:32;;;;;;;12.20;6.23;;;;;;;-141.97;70.88;47736.28;4972514;28;20204;-81
2023/05/12 04:49:58;;;;;;;12.03;6.10;;;;;;;-141.97;72.06;47824.69;4972176;28;20199;-80
2023/05/12 04:52:23;;;;;;;9.80;6.10;;;;;;;-141.97;71.97;47811.25;4989233;28;20604;-81
2023/05/12 04:54:49;;;;;;;10.67;6.10;;;;;;;-141.97;70.42;47749.72;4974004;28;20200;-80
2023/05/12 04:57:15;;;;;;;11.30;6.00;;;;;;;-141.97;71.40;47680.53;4972857;28;20259;-81
2023/05/12 04:59:41;;;;;;;10.93;6.60;;;;;;;-141.97;70.78;47703.59;4975306;28;20251;-82
2023/05/12 05:02:07;;;;;;;15.43;10.60;;;;;;;-141.97;71.30;47743.97;4978038;28;20172;-82
2023/05/12 05:04:33;;;;;;;11.77;7.37;;;;;;;-141.97;72.55;47661.31;4977116;28;20177;-81
2023/05/12 05:06:58;;;;;;;11.80;6.67;;;;;;;-141.97;71.37;47669.00;4975945;28;20187;-81
2023/05/12 05:09:24;;;;;;;12.30;7.63;;;;;;;-141.97;70.73;47657.47;4977194;28;20599;-79
2023/05/12 05:11:49;;;;;;;11.80;7.30;;;;;;;-141.97;71.29;47717.06;4976698;28;20200;-81
2023/05/12 05:14:15;;;;;;;10.47;6.93;;;;;;;-141.97;69.29;47678.63;4976310;28;20297;-82
2023/05/12 05:16:40;;;;;;;12.40;6.70;;;;;;;-141.97;70.38;47818.94;4955179;28;20227;-81
2023/05/12 05:19:06;;;;;;;17.80;8.30;;;;;;;-141.97;70.16;47688.22;4976807;28;20190;-81
2023/05/12 05:21:31;;;;;;;12.63;7.90;;;;;;;-141.97;69.55;47692.06;4976677;28;20599;-80
2023/05/12 05:23:57;;;;;;;12.97;8.63;;;;;;;-141.97;69.45;47711.28;4976093;28;20182;-82
2023/05/12 05:26:22;;;;;;;18.03;9.63;;;;;;;-141.97;69.11;47697.84;4976292;28;20174;-81
2023/05/12 05:28:48;;;;;;;13.50;6.90;;;;;;;-141.97;68.36;47699.75;4976289;28;20168;-81
2023/05/12 05:31:16;;;;;;;16.43;8.50;;;;;;;-141.97;68.75;47694.00;4976294;28;20182;-81
2023/05/12 05:33:43;;;;;;;9.80;6.67;;;;;;;-141.97;68.69;47661.31;4976615;28;20192;-81
2023/05/12 05:36:09;;;;;;;13.00;7.53;;;;;;;-141.97;68.79;47726.66;4976165;28;20715;-82
2023/05/12 05:38:35;;;;;;;14.40;8.00;;;;;;;-141.97;67.58;47728.59;4975975;28;20530;-81
2023/05/12 05:41:00;;;;;;;14.13;7.00;;;;;;;-141.97;65.33;47722.81;4976627;28;20176;-82
2023/05/12 05:43:25;;;;;;;11.03;6.40;;;;;;;-141.97;63.59;47609.41;4976299;28;20889;-82
2023/05/12 05:45:51;;;;;;;13.00;6.67;;;;;;;-141.97;61.79;47692.06;4975638;28;20183;-83
2023/05/12 05:48:17;;;;;;;13.20;6.77;;;;;;;-141.97;60.58;47690.16;4977295;28;20176;-82
2023/05/12 05:50:43;;;;;;;10.53;6.40;;;;;;;-141.97;59.62;47818.94;4977327;28;20537;-82
2023/05/12 05:53:08;;;;;;;12.00;6.90;;;;;;;-141.97;60.38;47730.50;4976835;28;20227;-82
2023/05/12 05:55:33;;;;;;;16.73;7.00;;;;;;;-141.97;58.94;47740.13;4977505;28;20315;-83
2023/05/12 05:57:59;;;;;;;10.67;6.87;;;;;;;-141.97;58.55;47611.34;4975550;28;20199;-83
2023/05/12 06:00:24;;;;;;;11.23;6.87;;;;;;;-141.97;58.37;47711.28;4976256;28;20246;-82
2023/05/12 06:02:50;;;;;;;11.00;6.43;;;;;;;-141.97;57.03;47619.03;4976826;28;20187;-84
2023/05/12 06:05:15;;;;;;;11.70;6.93;;;;;;;-141.97;58.05;47640.16;4976393;28;20617;-83
2023/05/12 06:07:40;;;;;;;13.13;6.53;;;;;;;-141.97;56.68;47713.22;4976248;28;20239;-82
2023/05/12 06:10:06;;;;;;;9.63;6.40;;;;;;;-141.97;55.55;47617.09;4975970;28;20694;-83
2023/05/12 06:12:32;;;;;;;10.07;6.23;;;;;;;-141.97;54.29;47720.91;4974994;28;20203;-83
2023/05/12 06:14:57;;;;;;;8.80;5.67;;;;;;;-141.97;53.14;47707.44;4982266;28;20286;-83
2023/05/12 06:17:23;;;;;;;11.20;5.83;;;;;;;-141.97;54.15;47649.78;4991657;28;20191;-81
2023/05/12 06:19:49;;;;;;;9.27;6.10;;;;;;;-141.97;52.45;47701.69;4976426;28;20175;-83
2023/05/12 06:22:14;;;;;;;13.17;5.97;;;;;;;-141.97;51.71;47644.00;4975854;28;20254;-83
2023/05/12 06:24:40;;;;;;;13.27;6.07;;;;;;;-141.97;52.01;47634.41;4976523;28;20262;-83
2023/05/12 06:27:06;;;;;;;9.07;5.83;;;;;;;-141.97;52.37;47659.38;4974710;28;20188;-83
2023/05/12 06:29:32;;;;;;;8.00;5.37;;;;;;;-141.97;53.02;47594.03;4975529;28;20188;-82
2023/05/12 06:31:57;;;;;;;10.87;5.63;;;;;;;-141.97;53.01;47613.25;4974654;28;20184;-84
2023/05/12 06:34:23;;;;;;;7.90;5.43;;;;;;;-141.97;53.07;47743.97;4975726;28;20278;-84
2023/05/12 06:36:48;;;;;;;9.07;6.07;;;;;;;-141.97;52.74;47842.00;4975459;28;20202;-84
2023/05/12 06:39:14;;;;;;;8.17;5.37;;;;;;;-141.97;51.04;47601.72;4977450;28;20172;-85
2023/05/12 06:41:40;;;;;;;10.03;5.20;;;;;;;-141.97;49.68;47709.38;4990778;28;20184;-83
2023/05/12 06:44:11;;;;;;;8.77;5.20;;;;;;;-141.97;48.90;47707.44;4977028;28;20163;-85
2023/05/12 06:46:39;;;;;;;9.27;5.70;;;;;;;-141.97;48.70;47665.16;4974969;28;20203;-84
2023/05/12 06:49:05;;;;;;;9.37;5.33;;;;;;;-141.97;48.61;47569.06;4975039;28;20190;-84
2023/05/12 06:51:31;;;;;;;9.27;5.23;;;;;;;-141.97;48.70;47728.59;4975762;28;20806;-84
2023/05/12 06:53:57;;;;;;;7.87;4.90;;;;;;;-141.97;48.15;47636.31;4975265;28;20307;-85
2023/05/12 06:56:22;;;;;;;8.50;5.30;;;;;;;-141.97;48.49;47526.75;4975291;28;20196;-85
2023/05/12 06:58:48;;;;;;;8.47;5.20;;;;;;;-141.97;47.74;47634.41;4974379;28;20183;-84
2023/05/12 07:01:15;;;;;;;10.67;4.90;;;;;;;-141.97;47.67;47642.09;4973827;28;20191;-85
2023/05/12 07:03:40;;;;;;;8.10;5.00;;;;;;;-141.97;48.34;47619.03;4975703;28;20168;-84
2023/05/12 07:06:06;;;;;;;7.17;4.70;;;;;;;-141.97;47.38;47655.53;4974888;28;20496;-84
2023/05/12 07:08:31;;;;;;;7.73;4.70;;;;;;;-141.97;47.00;47772.78;4974902;28;20220;-82
2023/05/12 07:10:59;;;;;;;8.30;5.17;;;;;;;-141.97;48.32;47730.50;4975692;28;20172;-83
2023/05/12 07:13:24;;;;;;;7.60;5.00;;;;;;;-141.97;47.93;47565.22;4974501;28;20603;-83
2023/05/12 07:15:49;;;;;;;10.77;5.20;;;;;;;-141.97;48.64;47813.16;4973560;28;20696;-84
2023/05/12 07:18:15;;;;;;;10.87;5.40;;;;;;;-141.97;48.55;47684.38;4970111;28;20215;-86
2023/05/12 07:20:40;;;;;;;7.33;5.10;;;;;;;-141.97;48.16;47655.53;4957957;28;20522;-82
2023/05/12 07:23:06;;;;;;;8.90;4.73;;;;;;;-141.97;47.24;47642.09;4973988;28;20184;-84
2023/05/12 07:25:31;;;;;;;10.03;4.63;;;;;;;-141.97;48.43;47599.81;4977219;28;20223;-83
2023/05/12 07:27:57;;;;;;;8.17;4.53;;;;;;;-141.97;47.60;47680.53;4981040;28;20219;-83
2023/05/12 07:30:22;;;;;;;8.00;4.90;;;;;;;-141.97;47.03;47578.66;4992840;28;20192;-84
2023/05/12 07:32:47;;;;;;;7.00;4.67;;;;;;;-141.97;46.09;47486.41;4975717;28;20195;-83
2023/05/12 07:35:13;;;;;;;11.43;4.90;;;;;;;-141.97;46.51;47619.03;4973305;28;20179;-83
2023/05/12 07:37:40;;;;;;;7.77;4.70;;;;;;;-141.97;46.39;47595.97;4973803;28;20171;-83
2023/05/12 07:40:06;;;;;;;10.33;5.00;;;;;;;-141.97;46.39;47674.78;4972871;28;20174;-83
2023/05/12 07:42:32;;;;;;;8.73;4.60;;;;;;;-141.97;45.51;47717.06;4974632;28;20157;-83
2023/05/12 07:44:57;;;;;;;6.70;4.90;;;;;;;-141.97;46.33;47611.34;4973929;28;20171;-83
2023/05/12 07:47:22;;;;;;;7.43;5.07;;;;;;;-141.97;47.08;47622.88;4973908;28;20176;-84
2023/05/12 07:49:48;;;;;;;9.93;5.20;;;;;;;-141.97;45.60;47663.22;4989195;28;20254;-81
2023/05/12 07:52:13;;;;;;;9.67;4.93;;;;;;;-141.97;43.41;47551.75;4973761;28;20239;-83
2023/05/12 07:54:39;;;;;;;6.43;4.70;;;;;;;-141.97;42.35;47665.16;4974993;28;20168;-83
2023/05/12 07:57:04;;;;;;;9.13;4.50;;;;;;;-141.97;42.13;47572.91;4973393;28;20168;-84
2023/05/12 07:59:29;;;;;;;11.73;5.60;;;;;;;-141.97;42.22;47626.72;4974166;28;20176;-83
2023/05/12 08:01:55;;;;;;;8.33;5.30;;;;;;;-141.97;43.28;47651.69;4973467;28;20596;-85
2023/05/12 08:04:21;;;;;;;9.43;5.27;;;;;;;-141.97;44.62;47570.97;4974784;28;20164;-84
2023/05/12 08:06:46;;;;;;;7.73;4.50;;;;;;;-141.97;44.42;47632.47;4974381;28;20711;-84
2023/05/12 08:09:12;;;;;;;8.03;4.93;;;;;;;-141.97;46.09;47551.75;4973708;28;20707;-83
2023/05/12 08:11:37;;;;;;;6.30;4.60;;;;;;;-141.97;46.45;47672.84;4973428;28;20176;-83
2023/05/12 08:14:02;;;;;;;9.07;5.07;;;;;;;-141.97;46.21;47572.91;4973650;28;20199;-83
2023/05/12 08:16:28;;;;;;;7.93;5.03;;;;;;;-141.97;47.13;47553.69;4973795;28;20235;-82
2023/05/12 08:18:53;;;;;;;8.37;5.20;;;;;;;-141.97;45.87;47851.59;4973834;28;20227;-83
2023/05/12 08:21:19;;;;;;;9.03;4.90;;;;;;;-141.97;43.69;47792.03;4972736;28;20633;-82
2023/05/12 08:23:44;;;;;;;12.37;4.87;;;;;;;-141.97;43.63;47638.25;4972515;28;20168;-84
2023/05/12 08:26:10;;;;;;;8.90;4.90;;;;;;;-141.97;44.70;47549.84;4973140;28;20628;-83
2023/05/12 08:28:35;;;;;;;7.57;4.80;;;;;;;-141.97;45.04;47549.84;4972962;28;20210;-85
2023/05/12 08:31:01;;;;;;;8.97;5.00;;;;;;;-141.97;45.03;47569.06;4976160;28;20537;-83
2023/05/12 08:33:27;;;;;;;8.77;4.93;;;;;;;-141.97;43.41;47605.56;4983987;28;20651;-83
2023/05/12 08:35:52;;;;;;;8.13;4.57;;;;;;;-141.97;41.58;47519.06;4989107;28;20338;-84
2023/05/12 08:38:18;;;;;;;6.37;4.53;;;;;;;-141.97;40.61;47530.59;4991228;28;20168;-84
2023/05/12 08:41:11;;;;;;;6.20;4.27;;;;;;;-141.97;40.66;47653.63;4979595;28;20171;-83
2023/05/12 08:43:48;;;;;;;8.33;4.40;;;;;;;-141.97;40.98;47657.47;4919185;29;20269;-84
2023/05/12 08:46:14;;;;;;;4.73;4.03;;;;;;;-141.97;40.64;47665.16;4918877;29;20345;-84
2023/05/12 08:48:40;;;;;;;6.30;4.27;;;;;;;-141.97;40.11;47795.88;4918288;29;20794;-83
2023/05/12 08:51:10;;;;;;;6.23;4.07;;;;;;;-141.97;39.24;47707.44;4919908;29;20190;-86
2023/05/12 08:53:38;;;;;;;6.90;4.50;;;;;;;-141.97;38.73;47636.31;4903791;29;20527;-83
2023/05/12 08:56:09;;;;;;;6.47;4.37;;;;;;;-141.97;39.67;47580.59;4917162;29;20166;-84
2023/05/12 08:58:36;;;;;;;6.83;4.43;;;;;;;-141.97;40.05;47647.84;4917106;29;20170;-83
2023/05/12 09:01:06;;;;;;;6.87;4.80;;;;;;;-141.97;39.66;47670.91;4917814;29;20190;-85
2023/05/12 09:03:33;;;;;;;8.00;4.30;;;;;;;-141.97;39.81;47759.34;4901641;29;20699;-83
2023/05/12 09:05:59;;;;;;;6.60;4.30;;;;;;;-141.97;39.91;47511.38;4906427;29;20281;-83
2023/05/12 09:08:25;;;;;;;6.33;4.30;;;;;;;-141.97;38.90;47655.53;4916518;29;20230;-83
2023/05/12 09:10:51;;;;;;;5.87;4.47;;;;;;;-141.97;38.35;47522.91;4916716;29;20186;-83
2023/05/12 09:13:22;;;;;;;10.10;5.27;;;;;;;-141.97;40.03;47642.09;4916773;29;20373;-83
2023/05/12 09:15:48;;;;;;;8.77;5.80;;;;;;;-141.97;40.35;47595.97;4917510;29;20586;-82
2023/05/12 09:18:13;;;;;;;6.93;4.33;;;;;;;-141.97;40.60;47634.41;4916779;29;20182;-82
2023/05/12 09:20:39;;;;;;;6.83;5.07;;;;;;;-141.97;39.93;47628.63;4949815;28;20195;-83
2023/05/12 09:23:13;;;;;;;7.50;4.53;;;;;;;-141.97;40.00;47630.56;4977103;28;20172;-82
2023/05/12 09:25:39;;;;;;;5.87;4.30;;;;;;;-141.97;39.48;47742.03;4976160;28;20175;-85
2023/05/12 09:28:04;;;;;;;8.17;4.30;;;;;;;-141.97;38.44;47547.91;4976464;28;20186;-85
2023/05/12 09:30:34;;;;;;;7.40;4.10;;;;;;;-141.97;38.08;47565.22;4977070;28;20179;-82
2023/05/12 09:33:06;;;;;;;6.13;4.87;;;;;;;-141.97;37.80;47634.41;4976239;28;20191;-83
2023/05/12 09:35:40;;;;;;;5.47;4.30;;;;;;;-141.97;38.58;47644.00;4976874;28;20175;-82
2023/05/12 09:38:10;;;;;;;5.97;4.27;;;;;;;-141.97;38.77;47615.19;4976115;28;20255;-83
2023/05/12 09:40:36;;;;;;;8.23;4.40;;;;;;;-141.97;39.02;47767.03;4975371;28;20172;-83
2023/05/12 09:43:04;;;;;;;5.00;4.20;;;;;;;-141.97;38.14;47572.91;4976082;28;20276;-83
2023/05/12 09:45:33;;;;;;;7.03;3.90;;;;;;;-141.97;37.19;47626.72;4974317;28;20618;-83
2023/05/12 09:48:08;;;;;;;5.50;4.10;;;;;;;-141.97;37.84;47584.44;4976242;28;20183;-83
2023/05/12 09:50:33;;;;;;;7.63;4.07;;;;;;;-141.97;37.86;47645.94;4976840;28;20613;-84
2023/05/12 09:52:59;;;;;;;5.00;4.00;;;;;;;-141.97;37.24;47553.69;4975018;28;20196;-84
2023/05/12 09:55:24;;;;;;;6.43;4.20;;;;;;;-141.97;36.48;47521.00;4975839;28;20184;-83
2023/05/12 09:57:52;;;;;;;5.77;4.00;;;;;;;-141.97;36.50;47507.53;4976086;28;20266;-82
2023/05/12 10:00:18;;;;;;;4.87;3.80;;;;;;;-141.97;35.99;47736.28;4976553;28;20160;-83
2023/05/12 10:02:48;;;;;;;5.80;3.90;;;;;;;-141.97;35.89;47607.50;4976269;28;20195;-82
2023/05/12 10:05:15;;;;;;;5.57;4.10;;;;;;;-141.97;36.35;47542.16;4981617;28;20176;-83
2023/05/12 10:07:49;;;;;;;6.40;4.00;;;;;;;-141.97;36.76;47569.06;4965298;28;20243;-83
2023/05/12 10:10:18;;;;;;;4.50;3.90;;;;;;;-141.97;36.49;47780.47;4976364;28;20314;-83
2023/05/12 10:12:44;;;;;;;5.87;4.07;;;;;;;-141.97;36.54;47622.88;4975336;28;20202;-83
2023/05/12 10:15:11;;;;;;;6.83;4.33;;;;;;;-141.97;36.91;47632.47;4975906;28;20653;-83
2023/05/12 10:17:39;;;;;;;12.23;4.10;;;;;;;-141.97;36.28;47590.19;4975801;28;20148;-83
2023/05/12 10:20:06;;;;;;;10.63;4.37;;;;;;;-141.97;36.35;47642.09;4975800;28;20235;-83
2023/05/12 10:22:33;;;;;;;10.90;4.27;;;;;;;-141.97;36.53;47659.38;4975874;28;20176;-83
2023/05/12 10:25:01;;;;;;;5.90;3.73;;;;;;;-141.97;36.89;47617.09;4975526;28;20624;-83
2023/05/12 10:27:28;;;;;;;5.57;4.10;;;;;;;-141.97;36.29;47644.00;4975415;28;20936;-83
2023/05/12 10:29:54;;;;;;;7.57;4.00;;;;;;;-141.97;36.73;47663.22;4975901;28;20263;-84
2023/05/12 10:32:19;;;;;;;10.03;4.07;;;;;;;-141.97;36.52;47622.88;4973783;28;20611;-83
2023/05/12 10:34:45;;;;;;;7.70;3.83;;;;;;;-141.97;36.76;47663.22;4982159;28;20171;-84
2023/05/12 10:37:11;;;;;;;8.87;4.13;;;;;;;-141.97;37.72;47609.41;4984914;28;20180;-83
2023/05/12 10:39:46;;;;;;;7.20;4.80;;;;;;;-141.97;38.70;47619.03;4987094;28;20176;-81
2023/05/12 10:42:16;;;;;;;9.70;4.43;;;;;;;-141.97;38.63;47657.47;4975390;28;20176;-83
2023/05/12 10:44:52;;;;;;;5.50;4.07;;;;;;;-141.97;38.25;47649.78;4974073;28;20191;-83
2023/05/12 10:47:17;;;;;;;6.10;4.20;;;;;;;-141.97;38.00;47580.59;4973904;28;20176;-84
2023/05/12 10:49:43;;;;;;;8.63;4.27;;;;;;;-141.97;38.08;47715.13;4974880;28;20224;-83
2023/05/12 10:52:12;;;;;;;8.70;4.13;;;;;;;-141.97;37.71;47697.84;4974373;28;20203;-84
2023/05/12 10:54:43;;;;;;;10.37;4.93;;;;;;;-141.97;37.57;47642.09;4973038;28;20770;-83
2023/05/12 10:57:13;;;;;;;7.13;4.10;;;;;;;-141.97;36.99;47567.13;4974598;28;20175;-83
2023/05/12 10:59:54;;;;;;;5.27;3.80;;;;;;;-141.97;36.99;47503.69;4975708;28;20589;-83
2023/05/12 11:02:29;;;;;;;7.40;4.30;;;;;;;-141.97;37.05;47669.00;4976876;28;20307;-83
2023/05/12 11:04:59;;;;;;;6.60;4.03;;;;;;;-141.97;36.90;47624.78;4974713;28;20200;-84
2023/05/12 11:07:26;;;;;;;6.57;4.00;;;;;;;-141.97;36.03;47599.81;4974874;28;20223;-83
2023/05/12 11:09:54;;;;;;;5.10;3.60;;;;;;;-141.97;35.69;47847.75;4975881;28;20251;-83